createdAt,value
2022-08-26T00:01:30.503Z,975.01
2022-08-26T00:08:07.995Z,974.95
2022-08-26T00:14:38.754Z,974.91
2022-08-26T00:21:12.738Z,974.86
2022-08-26T00:27:58.905Z,974.91
2022-08-26T00:34:34.936Z,974.89
2022-08-26T00:41:13.955Z,974.92
2022-08-26T00:48:05.652Z,974.91
2022-08-26T00:55:04.685Z,974.89
2022-08-26T01:01:57.176Z,974.95
2022-08-26T01:08:44.096Z,974.97
2022-08-26T01:15:16.189Z,975
2022-08-26T01:22:04.443Z,974.94
2022-08-26T01:28:56.968Z,974.95
2022-08-26T01:35:40.784Z,974.98
2022-08-26T01:42:13.281Z,975.01
2022-08-26T01:49:08.142Z,974.99
2022-08-26T01:55:44.022Z,974.99
2022-08-26T02:02:25.648Z,975.04
2022-08-26T02:09:21.220Z,975.02
2022-08-26T02:15:50.415Z,975
2022-08-26T02:22:30.385Z,975.03
2022-08-26T02:29:24.007Z,975.01
2022-08-26T02:36:05.031Z,974.98
2022-08-26T02:42:47.552Z,975.08
2022-08-26T02:49:28.365Z,975.03
2022-08-26T02:55:55.152Z,974.99
2022-08-26T03:02:34.448Z,974.97
2022-08-26T03:09:08.563Z,975
2022-08-26T03:15:38.030Z,974.93
2022-08-26T03:22:03.930Z,974.94
2022-08-26T03:28:40.955Z,974.96
2022-08-26T03:35:14.932Z,974.92
2022-08-26T03:41:38.407Z,974.91
2022-08-26T03:48:05.185Z,974.86
2022-08-26T03:54:34.074Z,974.83
2022-08-26T04:01:03.896Z,974.86
2022-08-26T04:07:48.955Z,974.89
2022-08-26T04:14:32.885Z,974.83
2022-08-26T04:21:08.479Z,974.76
2022-08-26T04:27:34.617Z,974.83
2022-08-26T04:34:14.493Z,974.87
2022-08-26T04:40:48.940Z,974.96
2022-08-26T04:47:19.818Z,974.99
2022-08-26T04:53:47.044Z,974.88
2022-08-26T05:00:26.656Z,974.94
2022-08-26T05:07:07.112Z,974.97
2022-08-26T05:13:30.770Z,975.05
2022-08-26T05:20:00.442Z,975.1
2022-08-26T05:26:38.802Z,975.06
2022-08-26T05:33:24.148Z,975.1
2022-08-26T05:39:53.426Z,975.15
2022-08-26T05:46:28.765Z,975.11
2022-08-26T05:53:03.007Z,975.14
2022-08-26T05:59:36.100Z,975.17
2022-08-26T06:06:11.327Z,975.19
2022-08-26T06:12:49.178Z,975.22
2022-08-26T06:19:23.484Z,975.15
2022-08-26T06:25:55.080Z,975.11
2022-08-26T06:32:22.709Z,975.17
2022-08-26T06:38:57.833Z,975.16
2022-08-26T06:45:32.980Z,975.15
2022-08-26T06:52:00.377Z,975.17
2022-08-26T06:58:33.178Z,975.18
2022-08-26T07:05:09.295Z,975.2
2022-08-26T07:11:46.179Z,975.2
2022-08-26T07:18:12.244Z,975.19
2022-08-26T07:24:44.574Z,975.17
2022-08-26T07:31:16.381Z,975.14
2022-08-26T07:37:45.056Z,975.19
2022-08-26T07:44:16.003Z,975.2
2022-08-26T07:50:54.210Z,975.2
2022-08-26T07:57:32.995Z,975.19
2022-08-26T08:04:14.276Z,975.16
2022-08-26T08:10:57.261Z,975.17
2022-08-26T08:17:30.214Z,975.2
2022-08-26T08:23:56.372Z,975.17
2022-08-26T08:30:28.231Z,975.22
2022-08-26T08:37:10.572Z,975.2
2022-08-26T08:43:50.209Z,975.12
2022-08-26T08:50:43.187Z,975.08
2022-08-26T08:57:46.463Z,975.07
2022-08-26T09:04:58.616Z,975.07
2022-08-26T09:11:39.499Z,975.04
2022-08-26T09:18:28.154Z,975.05
2022-08-26T09:25:19.928Z,975
2022-08-26T09:32:21.559Z,974.98
2022-08-26T09:39:05.099Z,974.98
2022-08-26T09:46:07.242Z,974.96
2022-08-26T09:53:25.278Z,974.86
2022-08-26T10:00:05.181Z,974.85
2022-08-26T10:06:55.613Z,974.77
2022-08-26T10:13:55.852Z,974.65
2022-08-26T10:21:07.787Z,974.6
2022-08-26T10:28:12.160Z,974.53
2022-08-26T10:35:11.144Z,974.48
2022-08-26T10:42:15.122Z,974.48
2022-08-26T10:49:29.278Z,974.32
2022-08-26T10:56:34.296Z,974.43
2022-08-26T11:03:42.271Z,974.44
2022-08-26T11:10:51.319Z,974.41
2022-08-26T11:17:56.610Z,974.37
2022-08-26T11:25:03.457Z,974.39
2022-08-26T11:32:18.295Z,974.37
2022-08-26T11:39:28.774Z,974.44
2022-08-26T11:46:30.757Z,974.47
2022-08-26T11:53:50.441Z,974.43
2022-08-26T12:00:53.926Z,974.4
2022-08-26T12:07:58.650Z,974.35
2022-08-26T12:15:06.367Z,974.23
2022-08-26T12:22:09.205Z,974.13
2022-08-26T12:29:20.415Z,974.12
2022-08-26T12:36:09.193Z,974.11
2022-08-26T12:43:08.426Z,974.13
2022-08-26T12:50:04.760Z,974.1
2022-08-26T12:57:08.578Z,974.16
2022-08-26T13:03:55.079Z,974.17
2022-08-26T13:10:36.847Z,974.11
2022-08-26T13:17:18.036Z,973.99
2022-08-26T13:23:54.349Z,973.92
2022-08-26T13:30:23.368Z,973.88
2022-08-26T13:36:49.749Z,973.76
2022-08-26T13:43:21.335Z,973.78
2022-08-26T13:49:44.854Z,973.74
2022-08-26T13:56:11.940Z,973.76
2022-08-26T14:02:35.385Z,973.78
2022-08-26T14:09:04.613Z,973.72
2022-08-26T14:15:34.381Z,973.7
2022-08-26T14:22:13.295Z,973.89
2022-08-26T14:28:49.845Z,973.84
2022-08-26T14:35:31.039Z,973.91
2022-08-26T14:42:01.679Z,973.89
2022-08-26T14:49:03.566Z,973.95
2022-08-26T14:55:35.151Z,974.34
2022-08-26T15:02:32.511Z,974.5
2022-08-26T15:09:00.383Z,974.46
2022-08-26T15:15:24.833Z,974.52
2022-08-26T15:22:01.807Z,974.61
2022-08-26T15:28:32.420Z,974.5
2022-08-26T15:34:56.596Z,974.5
2022-08-26T15:41:23.225Z,974.58
2022-08-26T15:48:07.256Z,974.56
2022-08-26T15:54:46.804Z,974.61
2022-08-26T16:01:27.995Z,974.5
2022-08-26T16:07:56.787Z,974.56
2022-08-26T16:14:25.338Z,974.56
2022-08-26T16:21:12.953Z,974.59
2022-08-26T16:27:40.295Z,974.7
2022-08-26T16:34:14.479Z,974.84
2022-08-26T16:40:49.410Z,974.78
2022-08-26T16:47:17.399Z,974.82
2022-08-26T16:53:48.462Z,974.9
2022-08-26T17:00:20.571Z,974.93
2022-08-26T17:06:47.834Z,974.95
2022-08-26T17:13:34.971Z,974.93
2022-08-26T17:20:04.448Z,974.92
2022-08-26T17:26:56.379Z,974.9
2022-08-26T17:33:38.986Z,974.87
2022-08-26T17:40:13.025Z,974.86
2022-08-26T17:46:52.726Z,974.84
2022-08-26T17:53:24.548Z,974.92
2022-08-26T17:59:56.758Z,975.03
2022-08-26T18:06:28.416Z,975.07
2022-08-26T18:12:56.747Z,975.13
2022-08-26T18:19:21.871Z,975.17
2022-08-26T18:25:54.508Z,975.14
2022-08-26T18:32:23.235Z,975.19
2022-08-26T18:39:01.473Z,975.19
2022-08-26T18:45:32.523Z,975.27
2022-08-26T18:52:03.350Z,975.43
2022-08-26T18:58:30.522Z,975.45
2022-08-26T19:04:58.534Z,975.57
2022-08-26T19:11:37.385Z,975.5
2022-08-26T19:18:14.909Z,975.58
2022-08-26T19:24:46.938Z,975.68
2022-08-26T19:31:22.313Z,975.71
2022-08-26T19:38:00.517Z,975.76
2022-08-26T19:44:27.745Z,975.79
2022-08-26T19:51:06.582Z,975.77
2022-08-26T19:57:42.617Z,975.67
2022-08-26T20:04:20.988Z,975.63
2022-08-26T20:10:50.917Z,975.61
2022-08-26T20:17:14.581Z,975.64
2022-08-26T20:23:40.916Z,975.66
2022-08-26T20:30:05.866Z,975.64
2022-08-26T20:36:35.433Z,975.83
2022-08-26T20:43:09.483Z,975.91
2022-08-26T20:49:35.310Z,975.98
2022-08-26T20:56:00.827Z,976.05
2022-08-26T21:02:32.597Z,976.09
2022-08-26T21:09:09.842Z,976.1
2022-08-26T21:15:35.653Z,976.08
2022-08-26T21:22:06.913Z,976.06
2022-08-26T21:28:40.917Z,976.03
2022-08-26T21:35:06.947Z,976.01
2022-08-26T21:41:35.867Z,976
2022-08-26T21:48:12.617Z,975.99
2022-08-26T21:54:50.613Z,976.04
2022-08-26T22:01:30.271Z,976.06
2022-08-26T22:07:56.430Z,976.09
2022-08-26T22:14:31.416Z,976.05
2022-08-26T22:21:10.638Z,976.01
2022-08-26T22:27:45.646Z,976.05
2022-08-26T22:34:22.642Z,976.05
2022-08-26T22:40:59.536Z,976.06
2022-08-26T22:47:30.985Z,976.09
2022-08-26T22:54:10.645Z,976.08
2022-08-26T23:00:45.249Z,976.11
2022-08-26T23:07:14.662Z,976.14
2022-08-26T23:13:43.963Z,976.1
2022-08-26T23:20:31.751Z,976.11
2022-08-26T23:27:19.306Z,976.04
2022-08-26T23:33:43.678Z,975.99
2022-08-26T23:40:09.300Z,975.98
2022-08-26T23:46:41.160Z,975.99
2022-08-26T23:53:14.033Z,976
2022-08-26T23:59:45.979Z,975.99
